»·PEaware :: N583MD KLAS-KONT

N583MD :: KLAS-KONT

FLIGHT INFORMATION

Flight Status: Arrived
Operator: Privately registered:
United States
More flights under this callsign
Pilot: Drew L. (13237)
Aircraft: MCDONNELL-DOUGLAS MD-83
(MD83)
More flights by this aircraft type
Origin: KLAS McCarran Intl
United States
Destination: KONT Ontario Intl
United States
More flights between these airports :: More routes between these airports
Route: +BOACH8 WHIGG FEYLA JCKIE2
File this flight plan on PilotEdge
Remarks:
Altitude:
(Current/Filed)
22,000ft
Speed:
(Current/Filed)
441kts
Departed: 28-Jul-20 08:27 PM
Arrived: 28-Jul-20 09:02 PM
Distance/Time
Traveled:
171nm/0:35
Distance/Time
To Go:
Arrived

Flight Plot

Page will automatically refresh every two minutes.

Flight plan parsing failed; only flown route is shown


Map Options




Map Legend


Flown Route
Filed Route
Departure Airport
Arrival Airport
Navaid (VOR, NDB)
Fix

Horizontal Profiles

Position Reports

Time Latitude Longitude Heading Altitude Ground
Speed
28-Jul-20 19:57 36.099476 -115.160524 38 2185ft 0kts
28-Jul-20 19:58 36.099476 -115.160524 38 2185ft 0kts
28-Jul-20 19:59 36.099476 -115.160524 38 2185ft 0kts
28-Jul-20 20:00 36.099476 -115.160524 38 2185ft 0kts
28-Jul-20 20:01 36.099476 -115.160524 38 2185ft 0kts
28-Jul-20 20:02 36.099476 -115.160524 38 2185ft 0kts
28-Jul-20 20:03 36.099476 -115.160524 38 2185ft 0kts
28-Jul-20 20:04 36.099476 -115.160524 38 2185ft 0kts
28-Jul-20 20:05 36.099476 -115.160524 38 2185ft 0kts
28-Jul-20 20:06 36.099476 -115.160524 38 2185ft 0kts
28-Jul-20 20:07 36.099476 -115.160524 38 2185ft 0kts
28-Jul-20 20:08 36.099476 -115.160524 38 2185ft 0kts
28-Jul-20 20:09 36.099476 -115.160524 38 2184ft 0kts
28-Jul-20 20:10 36.099476 -115.160524 38 2184ft 0kts
28-Jul-20 20:11 36.099476 -115.160524 38 2184ft 0kts
28-Jul-20 20:12 36.099476 -115.160524 38 2184ft 0kts
28-Jul-20 20:13 36.099476 -115.160524 38 2184ft 0kts
28-Jul-20 20:14 36.099476 -115.160524 38 2184ft 0kts
28-Jul-20 20:15 36.099476 -115.160524 38 2184ft 0kts
28-Jul-20 20:16 36.099476 -115.160524 38 2184ft 0kts
28-Jul-20 20:17 36.099476 -115.160523 38 2184ft 0kts
28-Jul-20 20:18 36.099476 -115.160523 38 2184ft 0kts
28-Jul-20 20:19 36.099645 -115.160304 55 2184ft 5kts
28-Jul-20 20:20 36.099767 -115.159647 113 2184ft 0kts
28-Jul-20 20:21 36.099747 -115.159590 113 2184ft 0kts
28-Jul-20 20:22 36.099625 -115.159189 105 2184ft 7kts
28-Jul-20 20:23 36.099682 -115.157957 72 2184ft 0kts
28-Jul-20 20:24 36.099682 -115.157957 72 2184ft 0kts
28-Jul-20 20:25 36.099717 -115.157819 72 2184ft 2kts
28-Jul-20 20:26 36.092228 -115.160704 205 2185ft 111kts
28-Jul-20 20:27 36.049730 -115.185803 205 3458ft 193kts
28-Jul-20 20:28 36.003008 -115.227244 243 5529ft 232kts
28-Jul-20 20:29 35.966992 -115.299508 212 7025ft 269kts
28-Jul-20 20:30 35.889531 -115.312390 186 8565ft 291kts
28-Jul-20 20:31 35.808349 -115.310060 175 11839ft 297kts
28-Jul-20 20:32 35.725153 -115.300037 176 14590ft 307kts
28-Jul-20 20:33 35.648517 -115.329885 231 16957ft 311kts
28-Jul-20 20:34 35.589204 -115.413910 228 18487ft 345kts
28-Jul-20 20:35 35.523216 -115.503041 228 20521ft 360kts
28-Jul-20 20:36 35.454813 -115.595078 228 21879ft 372kts
28-Jul-20 20:37 35.383655 -115.690581 228 21892ft 381kts
28-Jul-20 20:38 35.311499 -115.787484 228 21890ft 381kts
28-Jul-20 20:39 35.239409 -115.884402 228 21899ft 394kts
28-Jul-20 20:40 35.164502 -115.983919 227 21889ft 399kts
28-Jul-20 20:41 35.089048 -116.083733 228 21888ft 399kts
28-Jul-20 20:42 35.013842 -116.183284 228 21890ft 401kts
28-Jul-20 20:43 34.931910 -116.278378 224 21894ft 413kts
28-Jul-20 20:44 34.845904 -116.377386 226 20929ft 426kts
28-Jul-20 20:45 34.768643 -116.482459 236 18870ft 406kts
28-Jul-20 20:46 34.704363 -116.592018 236 16885ft 388kts
28-Jul-20 20:47 34.641245 -116.698106 235 16465ft 391kts
28-Jul-20 20:48 34.581250 -116.808798 243 14783ft 384kts
28-Jul-20 20:49 34.526964 -116.917927 229 12970ft 372kts
28-Jul-20 20:50 34.460180 -117.010082 227 11162ft 356kts
28-Jul-20 20:51 34.381298 -117.067658 207 10351ft 317kts
28-Jul-20 20:52 34.306398 -117.114263 207 9522ft 288kts
28-Jul-20 20:53 34.241846 -117.168432 226 8935ft 285kts
28-Jul-20 20:54 34.187996 -117.237698 226 7907ft 273kts
28-Jul-20 20:55 34.138680 -117.300953 226 7059ft 238kts
28-Jul-20 20:56 34.095570 -117.355963 226 5474ft 215kts
28-Jul-20 20:57 34.059034 -117.408610 247 3931ft 193kts
28-Jul-20 20:58 34.054635 -117.465837 270 2481ft 147kts
28-Jul-20 20:59 34.054769 -117.512302 268 2057ft 139kts
28-Jul-20 21:00 34.054925 -117.562120 270 1353ft 146kts
28-Jul-20 21:01 34.054959 -117.600870 266 921ft 21kts
28-Jul-20 21:03 34.052758 -117.601972 127 914ft 16kts

Navigation Log

Ident Type
Flight plan parsing failed, navigation log unavailable